Weather observations for the past three days for
Tacoma, Tacoma Narrows Airport
Metric (Imperial)
Date Time (pdt) Wind (kph) Vis. (km) Weather Sky Cond. Temperature (ºC) Relative Humidity Wind Chill (°C) Heat Index (°C) Pressure Precipitation (cm)
Air Dwpt 6 hour altimeter (cm) sea level (mb) 1 hr 3 hr 6 hr
Max. Min.
04 09:53 SW 13 16.09 Fair CLR 16.1 10 67% 75.87 1011.3
04 08:53 Vrbl 7 16.09 Fair CLR 15.6 10 70% 75.84 1010.9
04 07:53 W 9 16.09 Fair CLR 13.9 9.4 74% 75.82 1010.5
04 06:53 Calm 16.09 Fair CLR 11.7 7.8 77% 75.79 1010.2
04 05:53 Calm 16.09 Fair CLR 11.7 6.7 72% 75.74 1009.3
04 04:53 Calm 16.09 Fair CLR 12.8 6.7 17.2 12.8 67% 75.72 1009.1
04 03:53 Calm 16.09 Fair CLR 13.9 5.6 58% 75.72 1009.2
04 02:53 Calm 16.09 Fair CLR 15 5.6 54% 75.72 1009.0
04 01:53 Calm 16.09 Fair CLR 16.1 4.4 46% 75.69 1008.9
04 00:53 Calm 16.09 Fair CLR 16.1 5.6 50% 75.72 1009.1
03 23:53 Calm 16.09 Fair CLR 16.1 6.1 52% 75.72 1009.1
03 22:53 Calm 16.09 Fair CLR 17.2 5 26.1 17.2 45% 75.69 1008.9
03 21:53 NE 7 16.09 Fair CLR 20.6 5 36% 75.69 1008.9
03 20:53 Calm 16.09 Fair CLR 21.1 6.1 38% 75.69 1008.7
03 19:53 N 17 16.09 Fair CLR 22.8 6.1 34% 75.67 1008.6
03 18:53 N 15 16.09 Fair CLR 23.9 8.3 37% 25 75.69 1008.7
03 17:53 N 11 16.09 Fair CLR 25.6 7.8 32% 26 75.72 1009.1
03 16:53 NE 15 16.09 Fair CLR 25.6 7.8 26.7 20 32% 26 75.74 1009.6
03 15:53 NE 15 16.09 Fair CLR 25.6 7.8 32% 26 75.79 1010.3
03 14:53 NE 13 16.09 Fair CLR 25.6 8.9 35% 26 75.84 1011.0
03 13:53 NE 19 16.09 Fair CLR 24.4 7.8 35% 25 75.92 1011.7
03 12:53 N 26 G 37 16.09 Fair CLR 23.3 8.3 38% 75.97 1012.5
03 11:53 N 20 16.09 Fair CLR 21.7 8.9 44% 76.02 1013.1
03 10:53 N 15 16.09 Fair CLR 20.6 9.4 20.6 11.1 49% 76.05 1013.5
03 09:53 N 9 16.09 Fair CLR 18.9 9.4 54% 76.07 1013.7
03 08:53 NE 13 16.09 Fair CLR 17.2 8.3 56% 76.07 1014.0
03 07:53 NE 9 16.09 Fair CLR 16.1 8.3 60% 76.07 1013.9
03 06:53 E 6 16.09 Fair CLR 13.9 7.8 67% 76.05 1013.6
03 05:53 Calm 16.09 Fair CLR 11.7 6.7 72% 76.05 1013.7
03 04:53 Calm 16.09 Fair CLR 11.7 6.7 18.3 11.7 72% 76.05 1013.7
03 03:53 Calm 16.09 Fair CLR 12.2 6.7 69% 76.07 1013.9
03 02:53 Calm 16.09 Fair CLR 13.9 7.2 64% 76.07 1013.9
03 01:53 Calm 16.09 Fair CLR 13.3 6.7 65% 76.07 1014.2
03 00:53 NE 6 16.09 Fair CLR 17.8 6.7 48% 76.07 1014.1
02 23:53 NE 6 16.09 Fair CLR 17.8 7.2 50% 76.07 1014.0
02 22:53 NE 6 16.09 Fair CLR 18.3 7.2 22.2 18.3 49% 76.05 1013.8
02 21:53 NE 13 16.09 Fair CLR 19.4 6.1 42% 76.05 1013.7
02 20:53 NE 13 16.09 Fair CLR 18.9 6.7 45% 76 1013.1
02 19:53 N 15 16.09 Fair CLR 18.9 7.2 47% 75.97 1012.6
02 18:53 N 15 16.09 Fair CLR 20 7.8 45% 75.95 1012.4
02 17:53 N 19 16.09 Fair CLR 20 8.3 47% 75.97 1012.8
02 16:53 N 19 16.09 Fair CLR 21.7 8.3 22.2 14.4 42% 76 1013.0
02 15:53 NE 20 G 31 16.09 Fair CLR 21.1 8.9 46% 76.07 1013.9
02 14:53 N 15 16.09 Fair CLR 20.6 9.4 49% 76.12 1014.7
02 13:53 NE 19 16.09 Fair CLR 18.9 9.4 54% 76.15 1015.2
02 12:53 N 19 16.09 Fair CLR 17.8 10 60% 76.2 1015.8
02 11:53 Vrbl 7 16.09 Fair CLR 16.1 10 67% 76.23 1016.2
02 10:53 Calm 16.09 Fair CLR 14.4 9.4 15 9.4 72% 76.28 1016.7
02 09:53 Calm 16.09 Fair CLR 12.2 9.4 83% 76.3 1017.1
02 08:53 Calm 14.48 Overcast OVC004 10 8.9 93% 76.3 1017.2
02 07:53 Calm 12.87 Overcast OVC004 9.4 8.3 93% 76.28 1016.9
02 06:53 Calm 16.09 Overcast OVC006 9.4 8.3 93% 76.28 1016.7
02 05:53 Calm 16.09 Overcast OVC006 10 8.3 89% 76.25 1016.5
02 04:53 Calm 16.09 Mostly Cloudy BKN008 9.4 8.3 12.2 8.9 93% 76.3 1017.0
02 03:53 Calm 16.09 A Few Clouds FEW008 10 8.3 89% 76.3 1017.1
02 02:53 W 9 16.09 Fair CLR 10 8.3 89% 9 76.28 1016.7
02 01:53 NW 7 16.09 A Few Clouds FEW100 10.6 8.3 86% 76.28 1016.7
02 00:53 W 9 16.09 Fair CLR 10.6 8.3 86% 76.28 1016.7
01 23:53 NW 9 16.09 Mostly Cloudy SCT100 BKN120 11.7 8.9 83% 76.25 1016.6
01 22:53 W 9 16.09 A Few Clouds FEW120 12.8 8.9 21.7 12.8 77% 76.25 1016.5
01 21:53 W 9 16.09 A Few Clouds FEW120 14.4 9.4 72% 76.23 1016.0
01 20:53 NW 6 16.09 A Few Clouds FEW110 15.6 8.3 62% 76.17 1015.4
01 19:53 NW 7 16.09 Fair CLR 16.1 8.3 60% 76.12 1014.7
01 18:53 NE 7 16.09 Fair CLR 18.9 7.8 49% 76.07 1014.2
01 17:53 NE 13 16.09 Mostly Cloudy BKN110 20 9.4 51% 76.07 1014.2
01 16:53 E 7 16.09 Partly Cloudy SCT110 21.1 8.9 21.7 17.2 46% 76.07 1014.1
01 15:53 SE 9 16.09 Fair CLR 20.6 8.9 47% 76.1 1014.5
01 14:53 Vrbl 6 16.09 Fair CLR 21.1 8.9 46% 76.15 1015.0
01 13:53 Vrbl 6 16.09 Fair CLR 20.6 9.4 49% 76.17 1015.4
01 12:53 S 9 16.09 Partly Cloudy SCT120 18.9 7.8 49% 76.2 1015.8
01 11:53 N 7 16.09 Fair CLR 18.3 6.7 47% 76.25 1016.3
01 10:53 Vrbl 6 16.09 A Few Clouds FEW120 17.2 7.8 17.2 9.4 54% 76.25 1016.5
Date Time (pdt) Wind (kph) Vis. (km) Weather Sky Cond. Air Dwpt Max. Min. Relative Humidity Wind Chill (°C) Heat Index (°C) altimeter (cm) sea level (mb) 1 hr 3 hr 6 hr
6 hour
Temperature (ºC) Pressure Precipitation (cm)